createdAt,value
2023-03-08T00:01:40.319Z,100.00
2023-03-08T00:05:08.140Z,100.00
2023-03-08T00:08:16.650Z,100.00
2023-03-08T00:11:44.571Z,100.00
2023-03-08T00:15:12.845Z,100.00
2023-03-08T00:18:21.509Z,100.00
2023-03-08T00:21:50.307Z,100.00
2023-03-08T00:25:18.171Z,100.00
2023-03-08T00:28:46.251Z,100.00
2023-03-08T00:32:14.119Z,100.00
2023-03-08T00:35:42.052Z,100.00
2023-03-08T00:38:51.815Z,100.00
2023-03-08T00:42:19.649Z,100.00
2023-03-08T00:45:50.182Z,100.00
2023-03-08T00:49:15.653Z,100.00
2023-03-08T00:52:43.777Z,100.00
2023-03-08T00:56:11.488Z,100.00
2023-03-08T00:59:20.724Z,100.00
2023-03-08T01:02:48.569Z,100.00
2023-03-08T01:06:16.500Z,100.00
2023-03-08T01:09:44.323Z,100.00
2023-03-08T01:13:12.172Z,100.00
2023-03-08T01:16:21.094Z,100.00
2023-03-08T01:19:49.157Z,100.00
2023-03-08T01:22:39.167Z,100.00
2023-03-08T01:25:48.482Z,100.00
2023-03-08T01:29:16.633Z,100.00
2023-03-08T01:32:05.297Z,100.00
2023-03-08T01:35:33.382Z,100.00
2023-03-08T01:39:01.351Z,100.00
2023-03-08T01:42:29.226Z,100.00
2023-03-08T01:45:57.125Z,100.00
2023-03-08T01:49:24.973Z,100.00
2023-03-08T01:52:14.620Z,100.00
2023-03-08T01:55:42.624Z,100.00
2023-03-08T01:58:51.502Z,100.00
2023-03-08T02:02:19.658Z,100.00
2023-03-08T02:05:09.547Z,100.00
2023-03-08T02:08:38.418Z,100.00
2023-03-08T02:12:06.762Z,100.00
2023-03-08T02:15:34.804Z,100.00
2023-03-08T02:19:02.965Z,100.00
2023-03-08T02:22:30.690Z,100.00
2023-03-08T02:25:59.105Z,100.00
2023-03-08T02:29:27.031Z,100.00
2023-03-08T02:32:54.881Z,100.00
2023-03-08T02:36:22.883Z,100.00
2023-03-08T02:39:51.033Z,100.00
2023-03-08T02:43:00.154Z,100.00
2023-03-08T02:46:28.078Z,100.00
2023-03-08T02:49:19.065Z,100.00
2023-03-08T02:52:46.947Z,100.00
2023-03-08T02:55:55.036Z,100.00
2023-03-08T02:59:04.015Z,100.00
2023-03-08T03:02:31.903Z,100.00
2023-03-08T03:05:59.957Z,100.00
2023-03-08T03:09:08.223Z,100.00
2023-03-08T03:12:36.100Z,100.00
2023-03-08T03:16:04.120Z,100.00
2023-03-08T03:19:13.144Z,100.00
2023-03-08T03:22:41.108Z,100.00
2023-03-08T03:26:08.982Z,100.00
2023-03-08T03:29:36.878Z,100.00
2023-03-08T03:33:04.693Z,100.00
2023-03-08T03:35:53.650Z,100.00
2023-03-08T03:39:02.564Z,100.00
2023-03-08T03:42:30.565Z,100.00
2023-03-08T03:45:58.527Z,100.00
2023-03-08T03:49:26.436Z,100.00
2023-03-08T03:52:54.488Z,100.00
2023-03-08T03:56:22.516Z,100.00
2023-03-08T03:59:31.305Z,100.00
2023-03-08T04:02:40.167Z,100.00
2023-03-08T04:06:08.151Z,100.00
2023-03-08T04:09:18.303Z,100.00
2023-03-08T04:12:46.572Z,100.00
2023-03-08T04:15:55.575Z,100.00
2023-03-08T04:19:23.566Z,100.00
2023-03-08T04:22:51.554Z,100.00
2023-03-08T04:26:19.484Z,100.00
2023-03-08T04:29:47.779Z,100.00
2023-03-08T04:32:57.059Z,100.00
2023-03-08T04:36:25.209Z,100.00
2023-03-08T04:39:53.023Z,100.00
2023-03-08T04:43:02.067Z,100.00
2023-03-08T04:46:30.088Z,100.00
2023-03-08T04:49:57.946Z,100.00
2023-03-08T04:53:25.927Z,100.00
2023-03-08T04:56:54.957Z,100.00
2023-03-08T05:00:04.007Z,100.00
2023-03-08T05:03:12.661Z,100.00
2023-03-08T05:06:40.549Z,100.00
2023-03-08T05:10:12.403Z,100.00
2023-03-08T05:13:21.307Z,100.00
2023-03-08T05:16:49.396Z,100.00
2023-03-08T05:19:38.933Z,100.00
2023-03-08T05:22:58.241Z,100.00
2023-03-08T05:26:15.681Z,100.00
2023-03-08T05:29:43.581Z,100.00
2023-03-08T05:32:52.971Z,100.00
2023-03-08T05:36:22.180Z,100.00
2023-03-08T05:39:50.043Z,100.00
2023-03-08T05:43:19.168Z,100.00
2023-03-08T05:46:48.489Z,100.00
2023-03-08T05:49:59.173Z,100.00
2023-03-08T05:53:27.253Z,100.00
2023-03-08T05:56:54.988Z,100.00
2023-03-08T06:00:22.952Z,100.00
2023-03-08T06:03:50.732Z,100.00
2023-03-08T06:07:19.044Z,100.00
2023-03-08T06:10:46.838Z,100.00
2023-03-08T06:14:14.539Z,99.99
2023-03-08T06:17:03.866Z,99.51
2023-03-08T06:20:31.789Z,99.78
2023-03-08T06:23:28.436Z,99.93
2023-03-08T06:26:37.093Z,100.00
2023-03-08T06:30:04.921Z,100.00
2023-03-08T06:33:32.906Z,100.00
2023-03-08T06:37:00.775Z,100.00
2023-03-08T06:40:28.754Z,100.00
2023-03-08T06:43:37.610Z,100.00
2023-03-08T06:47:05.754Z,100.00
2023-03-08T06:50:33.541Z,100.00
2023-03-08T06:54:01.628Z,100.00
2023-03-08T06:57:29.720Z,100.00
2023-03-08T07:00:57.808Z,100.00
2023-03-08T07:04:25.628Z,100.00
2023-03-08T07:07:53.537Z,100.00
2023-03-08T07:11:21.296Z,100.00
2023-03-08T07:14:49.357Z,100.00
2023-03-08T07:18:17.245Z,100.00
2023-03-08T07:21:45.055Z,100.00
2023-03-08T07:25:01.157Z,100.00
2023-03-08T07:28:09.799Z,100.00
2023-03-08T07:31:37.475Z,100.00
2023-03-08T07:35:05.804Z,100.00
2023-03-08T07:38:33.783Z,100.00
2023-03-08T07:41:42.658Z,99.74
2023-03-08T07:44:51.710Z,99.96
2023-03-08T07:48:19.691Z,99.13
2023-03-08T07:51:29.741Z,99.85
2023-03-08T07:54:57.667Z,100.00
2023-03-08T07:58:25.573Z,100.00
2023-03-08T08:01:53.356Z,100.00
2023-03-08T08:05:22.076Z,100.00
2023-03-08T08:08:50.081Z,100.00
2023-03-08T08:12:18.441Z,100.00
2023-03-08T08:15:46.520Z,100.00
2023-03-08T08:18:16.084Z,100.00
2023-03-08T08:21:26.383Z,100.00
2023-03-08T08:24:52.297Z,100.00
2023-03-08T08:28:01.280Z,100.00
2023-03-08T08:31:29.379Z,100.00
2023-03-08T08:34:06.415Z,100.00
2023-03-08T08:37:15.296Z,100.00
2023-03-08T08:40:23.652Z,100.00
2023-03-08T08:43:32.532Z,100.00
2023-03-08T08:46:23.239Z,100.00
2023-03-08T08:48:55.272Z,100.00
2023-03-08T08:52:10.651Z,100.00
2023-03-08T08:54:39.028Z,100.00
2023-03-08T08:57:08.540Z,100.00
2023-03-08T08:59:38.496Z,100.00
2023-03-08T09:02:07.294Z,100.00
2023-03-08T09:04:59.137Z,100.00
2023-03-08T09:07:27.038Z,100.00
2023-03-08T09:10:54.965Z,100.00
2023-03-08T09:14:22.597Z,100.00
2023-03-08T09:17:50.383Z,99.61
2023-03-08T09:21:18.354Z,99.45
2023-03-08T09:24:46.207Z,98.27
2023-03-08T09:27:34.927Z,93.93
2023-03-08T09:31:02.634Z,95.48
2023-03-08T09:33:52.571Z,94.15
2023-03-08T09:37:08.534Z,88.64
2023-03-08T09:40:18.127Z,87.27
2023-03-08T09:43:46.061Z,85.56
2023-03-08T09:47:13.919Z,85.35
2023-03-08T09:50:26.294Z,87.92
2023-03-08T09:53:54.079Z,89.45
2023-03-08T09:57:21.839Z,86.69
2023-03-08T10:00:49.677Z,85.99
2023-03-08T10:04:17.499Z,84.61
2023-03-08T10:07:45.380Z,82.64
2023-03-08T10:11:13.108Z,85.48
2023-03-08T10:14:40.982Z,83.53
2023-03-08T10:18:08.788Z,85.80
2023-03-08T10:21:36.430Z,84.67
2023-03-08T10:25:04.294Z,85.07
2023-03-08T10:28:20.486Z,81.94
2023-03-08T10:31:48.677Z,84.23
2023-03-08T10:35:16.877Z,86.29
2023-03-08T10:38:16.659Z,88.58
2023-03-08T10:41:27.474Z,88.83
2023-03-08T10:44:57.447Z,89.66
2023-03-08T10:48:25.406Z,91.62
2023-03-08T10:51:53.497Z,92.77
2023-03-08T10:55:21.249Z,94.13
2023-03-08T10:58:30.111Z,92.34
2023-03-08T11:01:58.726Z,90.93
2023-03-08T11:05:27.039Z,90.35
2023-03-08T11:08:31.524Z,89.97
2023-03-08T11:12:00.345Z,87.17
2023-03-08T11:15:10.645Z,83.76
2023-03-08T11:18:40.679Z,86.60
2023-03-08T11:21:49.345Z,85.28
2023-03-08T11:25:17.480Z,85.03
2023-03-08T11:28:26.379Z,86.37
2023-03-08T11:31:35.015Z,88.42
2023-03-08T11:35:02.847Z,86.20
2023-03-08T11:38:30.973Z,83.74
2023-03-08T11:41:59.328Z,83.72
2023-03-08T11:45:07.993Z,81.63
2023-03-08T11:48:35.758Z,80.91
2023-03-08T11:51:24.710Z,80.16
2023-03-08T11:54:15.976Z,78.70
2023-03-08T11:57:43.970Z,76.08
2023-03-08T12:00:51.733Z,76.81
2023-03-08T12:04:19.846Z,75.72
2023-03-08T12:07:45.228Z,73.30
2023-03-08T12:11:09.441Z,73.00
2023-03-08T12:14:37.075Z,71.85
2023-03-08T12:18:04.933Z,67.70
2023-03-08T12:21:33.160Z,67.01
2023-03-08T12:24:41.168Z,65.84
2023-03-08T12:27:49.879Z,62.51
2023-03-08T12:30:59.423Z,60.18
2023-03-08T12:34:11.364Z,60.62
2023-03-08T12:37:34.469Z,59.97
2023-03-08T12:41:02.705Z,59.08
2023-03-08T12:44:11.757Z,58.64
2023-03-08T12:47:20.142Z,57.87
2023-03-08T12:50:48.373Z,56.71
2023-03-08T12:54:16.242Z,56.88
2023-03-08T12:57:44.106Z,57.00
2023-03-08T13:00:43.662Z,56.95
2023-03-08T13:04:11.571Z,57.39
2023-03-08T13:07:22.910Z,56.62
2023-03-08T13:10:35.258Z,56.73
2023-03-08T13:13:58.993Z,55.80
2023-03-08T13:17:26.989Z,55.96
2023-03-08T13:20:54.887Z,55.74
2023-03-08T13:24:04.661Z,55.73
2023-03-08T13:26:57.097Z,55.59
2023-03-08T13:30:25.042Z,54.73
2023-03-08T13:33:53.100Z,55.72
2023-03-08T13:36:41.730Z,56.90
2023-03-08T13:40:09.721Z,57.19
2023-03-08T13:43:37.742Z,57.84
2023-03-08T13:47:05.740Z,58.51
2023-03-08T13:50:33.673Z,59.00
2023-03-08T13:54:01.294Z,60.76
2023-03-08T13:57:29.083Z,61.08
2023-03-08T14:00:39.176Z,62.21
2023-03-08T14:04:07.162Z,63.28
2023-03-08T14:07:36.917Z,62.96
2023-03-08T14:11:16.274Z,64.65
2023-03-08T14:14:07.423Z,65.28
2023-03-08T14:16:35.753Z,65.69
2023-03-08T14:20:03.585Z,65.26
2023-03-08T14:22:59.741Z,64.88
2023-03-08T14:26:09.478Z,63.95
2023-03-08T14:29:01.674Z,64.74
2023-03-08T14:31:51.539Z,64.85
2023-03-08T14:35:19.676Z,64.26
2023-03-08T14:38:10.730Z,64.78
2023-03-08T14:41:19.406Z,63.81
2023-03-08T14:44:35.048Z,61.16
2023-03-08T14:47:23.865Z,60.96
2023-03-08T14:50:51.485Z,61.69
2023-03-08T14:54:00.187Z,62.17
2023-03-08T14:57:28.098Z,62.48
2023-03-08T15:00:38.470Z,63.60
2023-03-08T15:04:08.488Z,64.21
2023-03-08T15:07:17.024Z,64.73
2023-03-08T15:10:25.215Z,64.70
2023-03-08T15:13:14.535Z,65.21
2023-03-08T15:16:42.845Z,65.41
2023-03-08T15:20:00.108Z,66.43
2023-03-08T15:23:10.078Z,66.90
2023-03-08T15:26:37.948Z,66.95
2023-03-08T15:30:05.837Z,67.03
2023-03-08T15:33:13.588Z,67.10
2023-03-08T15:36:41.357Z,66.99
2023-03-08T15:40:09.334Z,66.17
2023-03-08T15:43:13.580Z,66.03
2023-03-08T15:46:41.863Z,66.91
2023-03-08T15:49:51.727Z,67.43
2023-03-08T15:53:00.702Z,68.05
2023-03-08T15:56:05.064Z,68.39
2023-03-08T15:59:13.845Z,68.34
2023-03-08T16:02:02.738Z,68.29
2023-03-08T16:05:11.570Z,67.63
2023-03-08T16:08:10.347Z,66.56
2023-03-08T16:11:38.048Z,63.68
2023-03-08T16:15:05.984Z,63.69
2023-03-08T16:18:14.478Z,64.00
2023-03-08T16:21:42.525Z,65.29
2023-03-08T16:25:06.114Z,66.08
2023-03-08T16:28:33.614Z,66.98
2023-03-08T16:31:49.240Z,67.32
2023-03-08T16:35:17.299Z,67.98
2023-03-08T16:38:15.496Z,69.02
2023-03-08T16:41:43.456Z,70.18
2023-03-08T16:44:55.400Z,70.41
2023-03-08T16:48:23.280Z,70.09
2023-03-08T16:51:47.477Z,71.91
2023-03-08T16:55:15.410Z,72.04
2023-03-08T16:58:20.523Z,74.14
2023-03-08T17:01:13.114Z,73.59
2023-03-08T17:04:40.965Z,74.59
2023-03-08T17:08:04.414Z,75.22
2023-03-08T17:11:32.556Z,76.59
2023-03-08T17:15:00.374Z,75.87
2023-03-08T17:18:09.319Z,76.55
2023-03-08T17:21:37.647Z,76.17
2023-03-08T17:25:01.319Z,75.18
2023-03-08T17:28:24.879Z,74.70
2023-03-08T17:31:48.580Z,74.11
2023-03-08T17:35:16.429Z,73.82
2023-03-08T17:38:44.332Z,73.34
2023-03-08T17:41:58.474Z,72.90
2023-03-08T17:45:07.567Z,72.68
2023-03-08T17:48:35.502Z,72.00
2023-03-08T17:51:24.792Z,71.61
2023-03-08T17:54:33.546Z,72.13
2023-03-08T17:58:01.340Z,73.15
2023-03-08T18:01:11.468Z,72.60
2023-03-08T18:04:23.512Z,72.03
2023-03-08T18:07:27.719Z,71.44
2023-03-08T18:10:55.352Z,71.44
2023-03-08T18:14:04.535Z,70.90
2023-03-08T18:17:13.642Z,69.79
2023-03-08T18:20:22.770Z,69.92
2023-03-08T18:23:50.406Z,70.26
2023-03-08T18:27:18.535Z,69.13
2023-03-08T18:30:27.582Z,68.25
2023-03-08T18:33:43.160Z,68.46
2023-03-08T18:37:10.855Z,68.26
2023-03-08T18:40:38.941Z,67.40
2023-03-08T18:43:50.717Z,67.42
2023-03-08T18:47:14.456Z,67.58
2023-03-08T18:50:19.797Z,67.36
2023-03-08T18:53:48.367Z,67.59
2023-03-08T18:57:06.116Z,66.94
2023-03-08T19:00:14.408Z,66.26
2023-03-08T19:03:38.983Z,65.38
2023-03-08T19:06:48.639Z,66.15
2023-03-08T19:10:16.373Z,65.68
2023-03-08T19:13:43.046Z,65.39
2023-03-08T19:17:11.329Z,65.23
2023-03-08T19:20:39.319Z,65.31
2023-03-08T19:23:48.133Z,64.55
2023-03-08T19:26:58.225Z,64.01
2023-03-08T19:30:25.973Z,63.87
2023-03-08T19:33:53.954Z,62.71
2023-03-08T19:37:22.768Z,62.91
2023-03-08T19:40:12.893Z,62.20
2023-03-08T19:43:25.836Z,62.22
2023-03-08T19:46:53.698Z,60.97
2023-03-08T19:50:02.568Z,60.55
2023-03-08T19:53:30.438Z,59.71
2023-03-08T19:56:58.273Z,59.25
2023-03-08T20:00:26.019Z,59.73
2023-03-08T20:03:37.970Z,58.31
2023-03-08T20:07:05.966Z,58.26
2023-03-08T20:10:33.834Z,58.21
2023-03-08T20:14:01.778Z,58.42
2023-03-08T20:17:25.243Z,58.75
2023-03-08T20:20:15.088Z,58.82
2023-03-08T20:23:19.930Z,59.76
2023-03-08T20:26:47.799Z,60.46
2023-03-08T20:30:11.899Z,60.96
2023-03-08T20:33:16.642Z,61.04
2023-03-08T20:36:25.345Z,60.62
2023-03-08T20:39:33.997Z,60.22
2023-03-08T20:42:59.030Z,59.82
2023-03-08T20:46:07.859Z,59.98
2023-03-08T20:49:35.693Z,60.24
2023-03-08T20:52:48.377Z,60.55
2023-03-08T20:55:59.860Z,60.88
2023-03-08T20:59:15.661Z,61.00
2023-03-08T21:02:39.558Z,61.36
2023-03-08T21:06:07.458Z,61.56
2023-03-08T21:09:32.561Z,62.07
2023-03-08T21:12:22.542Z,62.61
2023-03-08T21:15:50.718Z,63.21
2023-03-08T21:19:18.475Z,63.26
2023-03-08T21:22:46.230Z,63.61
2023-03-08T21:26:14.313Z,63.46
2023-03-08T21:29:42.378Z,63.80
2023-03-08T21:33:10.173Z,64.36
2023-03-08T21:36:38.022Z,64.79
2023-03-08T21:39:45.898Z,65.02
2023-03-08T21:43:13.640Z,65.45
2023-03-08T21:46:41.586Z,65.94
2023-03-08T21:50:10.095Z,66.25
2023-03-08T21:53:37.318Z,67.08
2023-03-08T21:57:05.222Z,66.70
2023-03-08T22:00:16.856Z,66.74
2023-03-08T22:03:44.810Z,66.67
2023-03-08T22:06:35.703Z,66.68
2023-03-08T22:09:51.490Z,66.06
2023-03-08T22:13:03.086Z,66.40
2023-03-08T22:16:31.476Z,66.34
2023-03-08T22:19:59.382Z,66.58
2023-03-08T22:22:49.108Z,66.26
2023-03-08T22:26:16.879Z,66.06
2023-03-08T22:29:44.848Z,66.27
2023-03-08T22:33:12.576Z,66.49
2023-03-08T22:36:40.357Z,66.70
2023-03-08T22:39:55.995Z,66.34
2023-03-08T22:43:11.860Z,66.10
2023-03-08T22:46:39.722Z,66.57
2023-03-08T22:50:07.405Z,66.78
2023-03-08T22:52:56.192Z,66.74
2023-03-08T22:56:01.489Z,66.89
2023-03-08T22:58:47.957Z,67.07
2023-03-08T23:01:38.150Z,67.69
2023-03-08T23:05:05.926Z,67.60
2023-03-08T23:08:33.872Z,68.15
2023-03-08T23:12:01.713Z,68.04
2023-03-08T23:15:29.645Z,67.94
2023-03-08T23:18:57.434Z,67.88
2023-03-08T23:22:07.141Z,68.23
2023-03-08T23:25:16.688Z,68.65
2023-03-08T23:28:25.179Z,69.22
2023-03-08T23:31:34.910Z,69.80
2023-03-08T23:34:42.803Z,69.87
2023-03-08T23:37:59.756Z,70.43
2023-03-08T23:41:29.312Z,70.40
2023-03-08T23:44:44.877Z,70.51
2023-03-08T23:48:12.629Z,70.15
2023-03-08T23:51:40.965Z,69.68
2023-03-08T23:55:08.924Z,69.69
2023-03-08T23:58:18.716Z,70.16
